Time;durP1;ratioP1;P1;durP2;ratioP2;P2;SDS_P1;SDS_P2;PMS_P1;PMS_P2;Temp;Humidity;BMP_temperature;BMP_pressure;BME280_temperature;BME280_humidity;BME280_pressure;Samples;Min_cycle;Max_cycle;Signal;HPM_P1;HPM_P2
2021/03/16 00:00:56;;;;;;;15.77;2.83;;;2.40;99.90;;;;;;5059231;28;20041;-59
2021/03/16 00:03:22;;;;;;;28.55;3.90;;;2.50;99.90;;;;;;5058533;28;20578;-58
2021/03/16 00:05:47;;;;;;;22.50;4.45;;;2.50;99.90;;;;;;5059857;28;20036;-58
2021/03/16 00:08:13;;;;;;;21.48;3.65;;;2.50;99.90;;;;;;5060803;28;20037;-55
2021/03/16 00:10:39;;;;;;;17.75;2.80;;;2.50;99.90;;;;;;5060062;28;20128;-56
2021/03/16 00:13:05;;;;;;;29.70;4.18;;;2.50;99.90;;;;;;5059491;28;20116;-58
2021/03/16 00:15:31;;;;;;;16.65;3.72;;;2.50;99.90;;;;;;5048521;28;20128;-58
2021/03/16 00:17:56;;;;;;;19.75;3.53;;;2.50;99.90;;;;;;5046612;28;20033;-54
2021/03/16 00:20:22;;;;;;;17.88;2.55;;;2.60;99.90;;;;;;5047023;28;20041;-56
2021/03/16 00:22:48;;;;;;;19.52;4.07;;;2.60;99.90;;;;;;5045820;28;20048;-57
2021/03/16 00:25:14;;;;;;;19.75;3.28;;;2.50;99.90;;;;;;5046863;28;20481;-51
2021/03/16 00:27:39;;;;;;;15.70;2.65;;;2.50;99.90;;;;;;5046015;28;20063;-55
2021/03/16 00:30:06;;;;;;;20.67;3.35;;;2.40;99.90;;;;;;5028736;28;20453;-56
2021/03/16 00:32:32;;;;;;;32.50;4.30;;;2.40;99.90;;;;;;5044298;28;20672;-57
2021/03/16 00:34:58;;;;;;;27.80;4.82;;;2.40;99.90;;;;;;5046161;28;20136;-55
2021/03/16 00:37:23;;;;;;;27.13;4.55;;;2.40;99.90;;;;;;5046299;28;20098;-54
2021/03/16 00:39:49;;;;;;;13.93;2.80;;;2.50;99.90;;;;;;5046662;28;20041;-56
2021/03/16 00:42:14;;;;;;;22.63;3.80;;;2.50;99.90;;;;;;5045863;28;20489;-55
2021/03/16 00:44:40;;;;;;;24.42;3.90;;;2.50;99.90;;;;;;5045657;28;20063;-53
2021/03/16 00:47:05;;;;;;;12.63;3.05;;;2.40;99.90;;;;;;5043670;28;20664;-57
2021/03/16 00:49:31;;;;;;;13.02;2.80;;;2.40;99.90;;;;;;5046324;28;20043;-57
2021/03/16 00:51:58;;;;;;;12.52;2.70;;;2.30;99.90;;;;;;5044822;28;20033;-57
2021/03/16 00:54:24;;;;;;;13.60;2.25;;;2.30;99.90;;;;;;5046250;28;20049;-57
2021/03/16 00:56:50;;;;;;;17.00;3.45;;;2.30;99.90;;;;;;5044751;28;20168;-50
2021/03/16 00:59:15;;;;;;;15.73;2.80;;;2.20;99.90;;;;;;5044448;28;20568;-56
2021/03/16 01:01:41;;;;;;;19.88;3.45;;;2.20;99.90;;;;;;5045088;28;20511;-58
2021/03/16 01:04:07;;;;;;;25.35;4.32;;;2.20;99.90;;;;;;5046115;28;20033;-56
2021/03/16 01:06:32;;;;;;;21.70;3.22;;;2.20;99.90;;;;;;5046804;28;20416;-57
2021/03/16 01:08:58;;;;;;;25.33;4.22;;;2.30;99.90;;;;;;5025467;28;20091;-53
2021/03/16 01:11:23;;;;;;;20.75;3.65;;;2.30;99.90;;;;;;5045539;28;20037;-57
2021/03/16 01:13:49;;;;;;;19.77;3.42;;;2.30;99.90;;;;;;5045852;28;20098;-57
2021/03/16 01:16:15;;;;;;;30.67;4.60;;;2.30;99.90;;;;;;5045454;28;20064;-58
2021/03/16 01:18:40;;;;;;;24.35;3.80;;;2.30;99.90;;;;;;5046248;28;20530;-50
2021/03/16 01:21:06;;;;;;;29.73;4.57;;;2.20;99.90;;;;;;5046589;28;20057;-55
2021/03/16 01:23:32;;;;;;;21.30;3.60;;;2.20;99.90;;;;;;5045820;28;20052;-56
2021/03/16 01:25:57;;;;;;;18.13;4.03;;;2.20;99.90;;;;;;5046145;28;20037;-58
2021/03/16 01:28:23;;;;;;;25.65;3.50;;;2.20;99.90;;;;;;5045185;28;20040;-58
2021/03/16 01:30:48;;;;;;;22.85;3.63;;;2.20;99.90;;;;;;5045402;28;20037;-57
2021/03/16 01:33:14;;;;;;;21.42;3.30;;;2.30;99.90;;;;;;5043920;28;20099;-59
2021/03/16 01:35:39;;;;;;;22.70;3.50;;;2.30;99.90;;;;;;5044716;28;20033;-58
2021/03/16 01:38:05;;;;;;;28.50;5.28;;;2.20;99.90;;;;;;5044950;28;20051;-52
2021/03/16 01:40:39;;;;;;;25.45;3.90;;;2.20;99.90;;;;;;5046044;28;20040;-57
2021/03/16 01:43:14;;;;;;;26.98;5.78;;;2.20;99.90;;;;;;5044287;28;20207;-58
2021/03/16 01:45:41;;;;;;;29.92;4.25;;;2.20;99.90;;;;;;5045164;28;20548;-58
2021/03/16 01:48:09;;;;;;;24.27;3.45;;;2.20;99.90;;;;;;5045764;28;20037;-59
2021/03/16 01:50:34;;;;;;;21.75;3.78;;;2.20;99.90;;;;;;5043844;28;20039;-58
2021/03/16 01:53:02;;;;;;;27.95;5.40;;;2.20;99.90;;;;;;5045155;28;20417;-53
2021/03/16 01:55:29;;;;;;;25.92;3.70;;;2.20;99.90;;;;;;5041876;28;20127;-57
2021/03/16 01:57:56;;;;;;;18.75;4.70;;;2.20;99.90;;;;;;5044567;28;20045;-54
2021/03/16 02:00:24;;;;;;;16.35;2.78;;;2.20;99.90;;;;;;5063572;28;20120;-53
2021/03/16 02:02:50;;;;;;;36.97;4.03;;;2.30;99.90;;;;;;5044221;28;20128;-57
2021/03/16 02:05:16;;;;;;;20.25;4.13;;;2.20;99.90;;;;;;5048152;28;20123;-58
2021/03/16 02:07:55;;;;;;;21.13;3.55;;;2.20;99.90;;;;;;5041477;28;20037;-55
2021/03/16 02:10:26;;;;;;;20.30;3.90;;;2.20;99.90;;;;;;5045450;28;20460;-58
2021/03/16 02:13:10;;;;;;;29.02;4.75;;;2.30;99.90;;;;;;5043309;28;20029;-57
2021/03/16 02:15:39;;;;;;;30.92;5.45;;;2.20;99.90;;;;;;5051959;28;20461;-60
2021/03/16 02:21:29;;;;;;;31.85;5.00;;;2.20;99.90;;;;;;5028205;28;20040;-57
2021/03/16 02:24:11;;;;;;;19.70;3.97;;;2.20;99.90;;;;;;5044612;28;20137;-56
2021/03/16 02:27:15;;;;;;;26.17;3.60;;;2.20;99.90;;;;;;5043910;28;20037;-53
2021/03/16 02:29:50;;;;;;;18.27;3.95;;;2.20;99.90;;;;;;5042297;28;20059;-57
2021/03/16 02:32:20;;;;;;;25.48;3.35;;;2.20;99.90;;;;;;5043340;28;20044;-59
2021/03/16 02:34:50;;;;;;;18.98;3.65;;;2.20;99.90;;;;;;5045021;28;20458;-58
2021/03/16 02:37:18;;;;;;;19.55;3.15;;;2.10;99.90;;;;;;5040384;28;20048;-55
2021/03/16 02:39:46;;;;;;;18.08;3.17;;;2.10;99.90;;;;;;5045290;28;20523;-56
2021/03/16 02:42:13;;;;;;;21.98;3.33;;;2.20;99.90;;;;;;5045141;28;20041;-54
2021/03/16 02:44:39;;;;;;;21.17;3.00;;;2.20;99.90;;;;;;5045215;28;20059;-60
2021/03/16 02:47:06;;;;;;;23.90;3.75;;;2.20;99.90;;;;;;5055716;28;20132;-59
2021/03/16 02:49:36;;;;;;;24.00;5.25;;;2.20;99.90;;;;;;5049743;28;20029;-53
2021/03/16 02:52:02;;;;;;;32.15;4.00;;;2.10;99.90;;;;;;5043265;28;20060;-57
2021/03/16 02:54:30;;;;;;;16.85;3.28;;;2.00;99.90;;;;;;5046117;28;20072;-59
2021/03/16 02:56:57;;;;;;;31.17;3.90;;;2.00;99.90;;;;;;5044803;28;20072;-59
2021/03/16 02:59:24;;;;;;;23.20;3.25;;;2.10;99.90;;;;;;5037667;28;20041;-56
2021/03/16 03:01:51;;;;;;;26.42;3.50;;;2.10;99.90;;;;;;5043353;28;20041;-56
2021/03/16 03:04:20;;;;;;;20.48;3.17;;;2.10;99.90;;;;;;5044886;28;20041;-57
2021/03/16 03:06:46;;;;;;;20.20;2.90;;;2.10;99.90;;;;;;5044975;28;20047;-58
2021/03/16 03:09:13;;;;;;;18.65;3.38;;;2.10;99.90;;;;;;5043977;28;20128;-55
2021/03/16 03:11:39;;;;;;;14.05;3.40;;;2.10;99.90;;;;;;5043772;28;20080;-55
2021/03/16 03:14:07;;;;;;;15.27;3.00;;;2.10;99.90;;;;;;5043572;28;20648;-59
2021/03/16 03:16:32;;;;;;;29.33;3.45;;;2.10;99.90;;;;;;5044207;28;20068;-56
2021/03/16 03:18:58;;;;;;;15.02;2.97;;;2.00;99.90;;;;;;5045290;28;20067;-56
2021/03/16 03:21:45;;;;;;;27.67;3.83;;;2.10;99.90;;;;;;5035933;28;20068;-58
2021/03/16 03:24:15;;;;;;;16.75;3.13;;;2.00;99.90;;;;;;5045161;28;20132;-58
2021/03/16 03:27:02;;;;;;;17.27;3.00;;;2.00;99.90;;;;;;5040004;28;20053;-57
2021/03/16 03:29:30;;;;;;;15.68;2.80;;;2.00;99.90;;;;;;5044826;28;20033;-56
2021/03/16 03:31:57;;;;;;;19.92;3.13;;;2.00;99.90;;;;;;5043949;28;20041;-54
2021/03/16 03:34:23;;;;;;;20.33;3.10;;;2.00;99.90;;;;;;5043782;28;20045;-55
2021/03/16 03:36:55;;;;;;;22.67;3.53;;;2.10;99.90;;;;;;5043920;28;20140;-56
2021/03/16 03:39:21;;;;;;;21.02;3.03;;;2.00;99.90;;;;;;5044544;28;20076;-56
2021/03/16 03:41:53;;;;;;;18.77;3.15;;;2.00;99.90;;;;;;5043575;28;20044;-61
2021/03/16 03:44:21;;;;;;;23.15;3.88;;;2.00;99.90;;;;;;5044542;28;20129;-57
2021/03/16 03:46:48;;;;;;;14.63;3.42;;;2.00;99.90;;;;;;5043948;28;20033;-58
2021/03/16 03:49:15;;;;;;;23.08;2.90;;;2.00;99.90;;;;;;5044287;28;20432;-58
2021/03/16 03:51:41;;;;;;;25.80;4.32;;;2.00;99.90;;;;;;5047708;28;20075;-52
2021/03/16 03:54:08;;;;;;;33.55;3.67;;;2.00;99.90;;;;;;5048532;28;20503;-55
2021/03/16 03:56:35;;;;;;;24.33;3.33;;;1.90;99.90;;;;;;5043240;28;20803;-57
2021/03/16 03:59:03;;;;;;;24.80;3.00;;;1.90;99.90;;;;;;5048165;28;20117;-56
2021/03/16 04:01:30;;;;;;;20.13;3.17;;;1.90;99.90;;;;;;5046044;28;20052;-55
2021/03/16 04:03:56;;;;;;;22.67;3.40;;;1.90;99.90;;;;;;5048347;28;20065;-57
2021/03/16 04:06:24;;;;;;;18.58;2.95;;;2.00;99.90;;;;;;5047942;28;20044;-56
2021/03/16 04:08:51;;;;;;;22.52;4.00;;;2.00;99.90;;;;;;5048727;28;20029;-58
2021/03/16 04:11:19;;;;;;;18.48;3.65;;;1.90;99.90;;;;;;5048084;28;20095;-59
2021/03/16 04:13:46;;;;;;;13.95;2.67;;;2.00;99.90;;;;;;5039328;28;20141;-61
2021/03/16 04:16:13;;;;;;;17.25;4.00;;;2.00;99.90;;;;;;5047846;28;20036;-57
2021/03/16 04:18:39;;;;;;;15.95;3.45;;;1.90;99.90;;;;;;5048156;28;20064;-58
2021/03/16 04:21:06;;;;;;;13.50;3.67;;;1.90;99.90;;;;;;5048347;28;20040;-55
2021/03/16 04:23:32;;;;;;;20.73;3.70;;;2.00;99.90;;;;;;5046985;28;20051;-59
2021/03/16 04:25:58;;;;;;;18.67;3.78;;;2.00;99.90;;;;;;5047414;28;20028;-59
2021/03/16 04:28:25;;;;;;;21.45;3.05;;;2.00;99.90;;;;;;5047779;28;20619;-54
2021/03/16 04:30:52;;;;;;;21.90;3.42;;;1.90;99.90;;;;;;5040135;28;20781;-61
2021/03/16 04:33:18;;;;;;;13.50;2.92;;;1.90;99.90;;;;;;5048216;28;20043;-61
2021/03/16 04:35:43;;;;;;;17.98;3.85;;;1.90;99.90;;;;;;5047871;28;20409;-61
2021/03/16 04:38:09;;;;;;;19.45;4.03;;;1.90;99.90;;;;;;5048529;28;20033;-60
2021/03/16 04:40:35;;;;;;;18.55;3.53;;;1.90;99.90;;;;;;5047360;28;20037;-60
2021/03/16 04:43:01;;;;;;;24.40;3.40;;;2.00;99.90;;;;;;5047678;28;20049;-60
2021/03/16 04:45:26;;;;;;;27.30;4.22;;;2.00;99.90;;;;;;5047865;28;20605;-60
2021/03/16 04:47:52;;;;;;;19.23;3.75;;;2.00;99.90;;;;;;5047290;28;20041;-61
2021/03/16 04:50:18;;;;;;;17.77;3.90;;;2.00;99.90;;;;;;5047989;28;20120;-59
2021/03/16 04:52:44;;;;;;;20.10;5.70;;;2.00;99.90;;;;;;5046800;28;20095;-58
2021/03/16 04:55:10;;;;;;;26.05;4.10;;;2.00;99.90;;;;;;5047363;28;20118;-60
2021/03/16 04:57:35;;;;;;;29.50;4.20;;;2.00;99.90;;;;;;5047231;28;20041;-60
2021/03/16 05:00:01;;;;;;;25.65;5.10;;;2.00;99.90;;;;;;5046876;28;20381;-60
2021/03/16 05:02:26;;;;;;;20.73;3.78;;;2.00;99.90;;;;;;5045563;28;21575;-61
2021/03/16 05:04:52;;;;;;;35.83;7.57;;;2.00;99.90;;;;;;5047395;28;20120;-58
2021/03/16 05:07:17;;;;;;;16.75;3.70;;;2.00;99.90;;;;;;5047219;28;20399;-61
2021/03/16 05:09:43;;;;;;;24.98;5.70;;;1.90;99.90;;;;;;5047425;28;20033;-59
2021/03/16 05:12:09;;;;;;;28.27;3.70;;;2.00;99.90;;;;;;5046844;28;20072;-61
2021/03/16 05:14:35;;;;;;;25.90;3.83;;;2.00;99.90;;;;;;5046769;28;20068;-58
2021/03/16 05:17:00;;;;;;;19.30;3.78;;;2.00;99.90;;;;;;5045779;28;20131;-61
2021/03/16 05:19:26;;;;;;;24.70;3.63;;;2.10;99.90;;;;;;5047553;28;20041;-59
2021/03/16 05:21:52;;;;;;;20.10;3.10;;;2.10;99.90;;;;;;5046690;28;20041;-59
2021/03/16 05:24:17;;;;;;;20.42;4.40;;;2.10;99.90;;;;;;5046458;28;20033;-59
2021/03/16 05:26:43;;;;;;;22.33;4.35;;;2.10;99.90;;;;;;5044097;28;20036;-61
2021/03/16 05:29:08;;;;;;;17.45;3.63;;;2.20;99.90;;;;;;5045969;28;20029;-61
2021/03/16 05:31:34;;;;;;;16.67;3.65;;;2.10;99.90;;;;;;5045942;28;20040;-60
2021/03/16 05:34:00;;;;;;;27.20;4.50;;;2.10;99.90;;;;;;5044971;28;20583;-60
2021/03/16 05:36:25;;;;;;;15.20;4.00;;;2.10;99.90;;;;;;5046755;28;20397;-60
2021/03/16 05:38:51;;;;;;;29.63;5.70;;;2.10;99.90;;;;;;5045803;28;20037;-57
2021/03/16 05:41:17;;;;;;;32.92;5.28;;;2.10;99.90;;;;;;5046514;28;20561;-60
2021/03/16 05:43:44;;;;;;;20.42;4.22;;;2.10;99.90;;;;;;5046229;28;20465;-60
2021/03/16 05:46:11;;;;;;;25.42;5.10;;;2.10;99.90;;;;;;5045170;28;20158;-59
2021/03/16 05:48:39;;;;;;;20.90;4.50;;;2.00;99.90;;;;;;5047093;28;20102;-58
2021/03/16 05:51:05;;;;;;;20.40;4.85;;;2.10;99.90;;;;;;5040629;28;20045;-61
2021/03/16 05:53:31;;;;;;;25.00;4.88;;;2.10;99.90;;;;;;5045068;28;20072;-60
2021/03/16 05:55:59;;;;;;;20.30;4.13;;;2.10;99.90;;;;;;5046109;28;20041;-60
2021/03/16 05:58:25;;;;;;;20.65;4.05;;;2.10;99.90;;;;;;5044254;28;20554;-59
2021/03/16 06:00:51;;;;;;;24.38;3.65;;;2.00;99.90;;;;;;5045228;28;20049;-57
2021/03/16 06:03:17;;;;;;;16.60;3.50;;;2.10;99.90;;;;;;5044597;28;20049;-60
2021/03/16 06:05:42;;;;;;;26.60;3.95;;;2.10;99.90;;;;;;5046138;28;20036;-60
2021/03/16 06:08:08;;;;;;;19.92;3.90;;;2.00;99.90;;;;;;5045913;28;20507;-60
2021/03/16 06:10:34;;;;;;;13.93;2.97;;;2.10;99.90;;;;;;5045458;28;20040;-60
2021/03/16 06:13:14;;;;;;;27.80;5.75;;;2.10;99.90;;;;;;5045934;28;20615;-60
2021/03/16 06:15:42;;;;;;;21.05;4.22;;;2.10;99.90;;;;;;5044634;28;20588;-59
2021/03/16 06:18:11;;;;;;;16.73;3.08;;;2.10;99.90;;;;;;5043284;28;20039;-60
2021/03/16 06:20:38;;;;;;;18.15;2.92;;;2.10;99.90;;;;;;5045596;28;20079;-57
2021/03/16 06:23:08;;;;;;;17.83;2.72;;;2.10;99.90;;;;;;5044539;28;20041;-61
2021/03/16 06:25:37;;;;;;;19.10;3.25;;;2.10;99.90;;;;;;5047211;28;20068;-60
2021/03/16 06:28:11;;;;;;;17.90;3.03;;;2.10;99.90;;;;;;5045426;28;20044;-58
2021/03/16 06:30:38;;;;;;;21.02;3.47;;;2.10;99.90;;;;;;5044732;28;20112;-59
2021/03/16 06:33:15;;;;;;;21.90;3.42;;;2.10;99.90;;;;;;5044703;28;20049;-57
2021/03/16 06:35:41;;;;;;;17.45;3.15;;;2.10;99.90;;;;;;5042168;28;20171;-61
2021/03/16 06:38:11;;;;;;;21.45;4.43;;;2.20;99.90;;;;;;5046969;28;20521;-58
2021/03/16 06:40:37;;;;;;;23.35;3.65;;;2.20;99.90;;;;;;5045568;28;20408;-60
2021/03/16 06:43:05;;;;;;;17.27;3.53;;;2.10;99.90;;;;;;5045373;28;20045;-58
2021/03/16 06:45:32;;;;;;;15.60;3.10;;;2.20;99.90;;;;;;5044769;28;20071;-59
2021/03/16 06:47:58;;;;;;;21.40;3.55;;;2.20;99.90;;;;;;5045704;28;20045;-61
2021/03/16 06:50:31;;;;;;;17.52;3.58;;;2.30;99.90;;;;;;5045295;28;20404;-60
2021/03/16 06:52:57;;;;;;;23.65;3.70;;;2.30;99.90;;;;;;5038239;28;20755;-61
2021/03/16 06:55:24;;;;;;;19.85;3.08;;;2.30;99.90;;;;;;5044640;28;20551;-57
2021/03/16 06:57:50;;;;;;;14.80;3.28;;;2.40;99.90;;;;;;5045082;28;20049;-60
2021/03/16 07:00:16;;;;;;;25.20;3.53;;;2.40;99.90;;;;;;5045461;28;20087;-60
2021/03/16 07:02:42;;;;;;;18.83;3.47;;;2.40;99.90;;;;;;5045820;28;20080;-60
2021/03/16 07:05:08;;;;;;;22.40;3.70;;;2.50;99.90;;;;;;5044631;28;20067;-61
2021/03/16 07:07:33;;;;;;;19.23;3.30;;;2.40;99.90;;;;;;5045116;28;20094;-58
2021/03/16 07:10:05;;;;;;;19.73;4.82;;;2.40;99.90;;;;;;5044996;28;20033;-58
2021/03/16 07:12:34;;;;;;;15.75;2.90;;;2.50;99.90;;;;;;5044754;28;20096;-58
2021/03/16 07:15:01;;;;;;;27.10;3.10;;;2.60;99.90;;;;;;5045386;28;20056;-61
2021/03/16 07:17:28;;;;;;;31.55;5.15;;;2.50;99.90;;;;;;5044129;28;20041;-60
2021/03/16 07:20:04;;;;;;;24.23;3.80;;;2.60;99.90;;;;;;5044671;28;20386;-60
2021/03/16 07:22:35;;;;;;;22.45;4.18;;;2.60;99.90;;;;;;5045180;28;20526;-61
2021/03/16 07:25:05;;;;;;;21.73;3.17;;;2.60;99.90;;;;;;5046271;28;20059;-64
2021/03/16 07:27:31;;;;;;;17.70;3.92;;;2.60;99.90;;;;;;5048976;28;20045;-62
2021/03/16 07:29:58;;;;;;;21.98;3.50;;;2.50;99.90;;;;;;5043801;28;20067;-59
2021/03/16 07:32:24;;;;;;;18.58;3.25;;;2.50;99.90;;;;;;5047235;28;20037;-62
2021/03/16 07:34:50;;;;;;;19.05;3.35;;;2.40;99.90;;;;;;5048598;28;20056;-62
2021/03/16 07:37:16;;;;;;;21.00;2.75;;;2.40;99.90;;;;;;5048929;28;20435;-61
2021/03/16 07:39:43;;;;;;;20.90;3.47;;;2.40;99.90;;;;;;5048985;28;20045;-59
2021/03/16 07:42:10;;;;;;;16.92;2.78;;;2.50;99.90;;;;;;5048002;28;20036;-67
2021/03/16 07:44:43;;;;;;;15.15;4.07;;;2.60;99.90;;;;;;5048998;28;20053;-62
2021/03/16 07:47:09;;;;;;;17.25;3.33;;;2.60;99.90;;;;;;5047728;28;20056;-59
2021/03/16 07:49:39;;;;;;;24.98;3.63;;;2.60;99.90;;;;;;5049136;28;20033;-56
2021/03/16 07:52:20;;;;;;;22.88;4.40;;;2.60;99.90;;;;;;5048093;28;20116;-58
2021/03/16 07:54:50;;;;;;;14.57;3.08;;;2.70;99.90;;;;;;5048570;28;20533;-59
2021/03/16 07:57:35;;;;;;;30.33;4.03;;;2.80;99.90;;;;;;5048457;28;20045;-61
2021/03/16 08:00:04;;;;;;;17.15;3.28;;;2.90;99.90;;;;;;5047788;28;20059;-59
2021/03/16 08:02:30;;;;;;;16.92;2.97;;;2.80;99.90;;;;;;5047407;28;20040;-61
2021/03/16 08:04:56;;;;;;;17.30;2.85;;;2.70;99.90;;;;;;5048684;28;20597;-62
2021/03/16 08:07:24;;;;;;;18.08;2.90;;;2.70;99.90;;;;;;5047183;28;20512;-61
2021/03/16 08:09:52;;;;;;;10.25;2.72;;;2.60;99.90;;;;;;5047721;28;20060;-60
2021/03/16 08:12:25;;;;;;;21.67;2.83;;;2.50;99.90;;;;;;5046259;28;20082;-62
2021/03/16 08:14:51;;;;;;;12.15;3.33;;;2.60;99.90;;;;;;5047472;28;20037;-62
2021/03/16 08:17:34;;;;;;;9.77;2.47;;;2.90;99.90;;;;;;5047432;28;20033;-66
2021/03/16 08:20:02;;;;;;;10.68;2.20;;;3.30;99.90;;;;;;5047120;28;20523;-59
2021/03/16 08:22:28;;;;;;;12.45;2.60;;;4.00;99.90;;;;;;5046822;28;20521;-60
2021/03/16 08:25:04;;;;;;;14.02;3.25;;;4.10;99.90;;;;;;5048229;28;20040;-63
2021/03/16 08:27:31;;;;;;;10.27;2.45;;;3.90;99.90;;;;;;5046205;28;20045;-56
2021/03/16 08:29:57;;;;;;;15.75;3.13;;;3.90;99.90;;;;;;5048691;28;20052;-54
2021/03/16 08:32:23;;;;;;;12.43;3.00;;;4.00;99.90;;;;;;5046885;28;20045;-57
2021/03/16 08:34:50;;;;;;;17.80;2.35;;;4.20;99.90;;;;;;5043796;28;20040;-53
2021/03/16 08:37:36;;;;;;;15.80;3.45;;;3.90;99.90;;;;;;5046487;28;20098;-55
2021/03/16 08:40:04;;;;;;;26.02;5.00;;;3.90;99.90;;;;;;5042348;28;20536;-57
2021/03/16 08:42:30;;;;;;;27.17;5.03;;;3.90;99.90;;;;;;5046304;28;20040;-59
2021/03/16 08:44:56;;;;;;;13.45;2.90;;;3.90;99.90;;;;;;5046980;28;20041;-54
2021/03/16 08:47:25;;;;;;;13.40;2.85;;;3.70;99.90;;;;;;5044969;28;20045;-55
2021/03/16 08:49:53;;;;;;;12.70;2.83;;;3.70;99.90;;;;;;5039068;28;20526;-56
2021/03/16 08:52:24;;;;;;;14.43;2.40;;;3.50;99.90;;;;;;5045854;28;20036;-56
2021/03/16 08:54:51;;;;;;;17.42;2.85;;;3.40;99.90;;;;;;5044957;28;20745;-54
2021/03/16 08:57:22;;;;;;;18.95;2.95;;;3.30;99.90;;;;;;5045702;28;20118;-55
2021/03/16 08:59:48;;;;;;;16.52;2.25;;;3.30;99.90;;;;;;5045631;28;20489;-54
2021/03/16 09:02:24;;;;;;;11.38;1.95;;;3.20;99.90;;;;;;5044797;28;20044;-54
2021/03/16 09:04:49;;;;;;;17.88;3.15;;;3.30;99.90;;;;;;5046529;28;20049;-57
2021/03/16 09:07:38;;;;;;;14.75;2.80;;;3.10;99.90;;;;;;5045723;28;20122;-58
2021/03/16 09:10:08;;;;;;;19.85;4.45;;;3.10;99.90;;;;;;5045598;28;20449;-55
2021/03/16 09:12:36;;;;;;;22.98;8.30;;;3.10;99.90;;;;;;5044791;28;20496;-51
2021/03/16 09:15:09;;;;;;;15.43;3.00;;;3.30;99.90;;;;;;5045894;28;20496;-59
2021/03/16 09:17:36;;;;;;;11.88;2.97;;;3.40;99.90;;;;;;5038493;28;20042;-58
2021/03/16 09:20:27;;;;;;;14.38;2.45;;;3.50;99.90;;;;;;5044088;28;20519;-55
2021/03/16 09:23:03;;;;;;;14.27;3.25;;;3.70;99.90;;;;;;5043167;28;20116;-55
2021/03/16 09:25:38;;;;;;;13.05;4.15;;;3.80;99.90;;;;;;5040695;28;20059;-52
2021/03/16 09:28:09;;;;;;;18.35;3.55;;;4.10;99.90;;;;;;5045275;28;20045;-57
2021/03/16 09:30:39;;;;;;;23.80;3.75;;;4.20;99.90;;;;;;5045160;28;20178;-51
2021/03/16 09:33:07;;;;;;;18.20;4.60;;;4.30;99.90;;;;;;5045294;28;20511;-56
2021/03/16 09:35:33;;;;;;;11.70;2.47;;;4.40;99.90;;;;;;5046251;28;20065;-57
2021/03/16 09:37:58;;;;;;;13.48;2.28;;;4.50;99.90;;;;;;5045660;28;20069;-55
2021/03/16 09:40:38;;;;;;;15.48;5.10;;;4.60;99.90;;;;;;5045661;28;20061;-56
2021/03/16 09:43:24;;;;;;;14.88;3.20;;;4.60;99.90;;;;;;5045634;28;20045;-53
2021/03/16 09:45:58;;;;;;;12.20;3.55;;;4.60;99.90;;;;;;5039622;28;20653;-54
2021/03/16 09:48:25;;;;;;;9.32;2.78;;;4.90;99.90;;;;;;5044476;28;20045;-54
2021/03/16 09:50:52;;;;;;;15.35;4.30;;;5.00;99.90;;;;;;5045771;28;20047;-53
2021/03/16 09:53:21;;;;;;;14.10;4.47;;;4.80;99.90;;;;;;5043395;28;20032;-59
2021/03/16 09:55:57;;;;;;;31.80;15.13;;;4.70;99.90;;;;;;5045430;28;20642;-57
2021/03/16 09:58:23;;;;;;;18.50;7.28;;;4.50;99.90;;;;;;5043612;28;20040;-54
2021/03/16 10:00:50;;;;;;;17.65;7.85;;;4.50;99.90;;;;;;5045913;28;20082;-52
2021/03/16 10:03:17;;;;;;;10.02;2.08;;;4.70;99.90;;;;;;5044652;28;20044;-55
2021/03/16 10:05:44;;;;;;;10.45;2.30;;;4.90;99.90;;;;;;5038271;28;20044;-57
2021/03/16 10:08:10;;;;;;;13.50;2.35;;;4.80;99.90;;;;;;5045738;28;20425;-50
2021/03/16 10:10:37;;;;;;;16.63;2.33;;;4.70;99.90;;;;;;5043691;28;20037;-55
2021/03/16 10:13:06;;;;;;;9.88;2.10;;;4.50;99.90;;;;;;5042765;28;20218;-55
2021/03/16 10:15:39;;;;;;;5.55;2.90;;;4.30;99.90;;;;;;5043791;28;20047;-53
2021/03/16 10:18:08;;;;;;;4.88;1.95;;;4.20;99.90;;;;;;5044281;28;20044;-55
2021/03/16 10:20:36;;;;;;;5.32;2.00;;;4.00;99.90;;;;;;5045872;28;20056;-53
2021/03/16 10:23:04;;;;;;;9.50;1.95;;;4.00;99.90;;;;;;5045164;28;20520;-56
2021/03/16 10:25:31;;;;;;;11.57;1.85;;;4.00;99.90;;;;;;5041149;28;20076;-52
2021/03/16 10:28:03;;;;;;;7.10;1.60;;;3.70;99.90;;;;;;5043974;28;20110;-56
2021/03/16 10:30:31;;;;;;;9.55;1.40;;;3.60;99.90;;;;;;5043912;28;20041;-55
2021/03/16 10:32:57;;;;;;;2.88;1.00;;;3.60;99.90;;;;;;5045678;28;20045;-53
2021/03/16 10:35:22;;;;;;;3.30;1.10;;;3.20;99.90;;;;;;5044232;28;20037;-56
2021/03/16 10:37:48;;;;;;;2.10;0.98;;;3.00;99.90;;;;;;5047565;28;20048;-61
2021/03/16 10:40:13;;;;;;;;;;;3.10;99.90;;;;;;5047955;28;20036;-56
2021/03/16 10:42:39;;;;;;;2.42;0.80;;;3.30;99.90;;;;;;5047673;28;21072;-58
2021/03/16 10:45:05;;;;;;;2.95;0.80;;;3.50;99.90;;;;;;5048233;28;20668;-56
2021/03/16 10:47:31;;;;;;;6.63;1.20;;;3.60;99.90;;;;;;5043437;28;20135;-54
2021/03/16 10:49:57;;;;;;;6.90;1.15;;;3.60;99.90;;;;;;5042557;28;20685;-56
2021/03/16 10:52:22;;;;;;;;;;;3.80;99.90;;;;;;5048565;28;20051;-55
2021/03/16 10:54:48;;;;;;;8.35;1.20;;;3.60;99.90;;;;;;5048907;28;20363;-54
2021/03/16 10:57:14;;;;;;;6.25;1.88;;;3.60;99.90;;;;;;5044228;28;20409;-55
2021/03/16 10:59:40;;;;;;;4.53;1.50;;;3.70;99.90;;;;;;5044024;28;20048;-52
2021/03/16 11:02:06;;;;;;;10.70;5.50;;;3.80;99.90;;;;;;5044102;28;20037;-56
2021/03/16 11:04:33;;;;;;;8.15;2.40;;;4.10;99.90;;;;;;5043536;28;20479;-57
2021/03/16 11:06:59;;;;;;;7.72;1.55;;;4.30;99.90;;;;;;5043863;28;20508;-56
2021/03/16 11:09:24;;;;;;;5.68;1.45;;;4.50;99.90;;;;;;5044036;28;20039;-55
2021/03/16 11:11:50;;;;;;;11.77;1.80;;;4.60;99.90;;;;;;5043930;28;20045;-52
2021/03/16 11:14:15;;;;;;;;;;;4.60;99.90;;;;;;5044281;28;20049;-55
2021/03/16 11:16:42;;;;;;;4.25;1.25;;;4.70;99.90;;;;;;5043598;28;19927;-56
2021/03/16 11:19:07;;;;;;;6.00;1.30;;;4.80;99.90;;;;;;5044179;28;20033;-56
2021/03/16 11:21:33;;;;;;;;;;;5.20;99.90;;;;;;5044296;28;20066;-58
2021/03/16 11:23:59;;;;;;;5.47;1.70;;;5.40;99.90;;;;;;5043603;28;20528;-52
2021/03/16 11:26:26;;;;;;;7.20;1.73;;;5.40;99.90;;;;;;5043968;28;20047;-59
2021/03/16 11:28:52;;;;;;;10.00;1.75;;;5.50;99.90;;;;;;5045465;28;20055;-56
2021/03/16 11:31:17;;;;;;;8.95;2.00;;;5.70;99.90;;;;;;5042769;28;20045;-52
2021/03/16 11:33:43;;;;;;;;;;;5.70;99.90;;;;;;5044339;28;20048;-56
2021/03/16 11:36:09;;;;;;;7.22;1.60;;;5.60;99.90;;;;;;5044176;28;20007;-57
2021/03/16 11:38:34;;;;;;;6.53;1.48;;;5.60;99.90;;;;;;5044269;28;20094;-59
2021/03/16 11:41:00;;;;;;;;;;;5.40;99.90;;;;;;5044298;28;20460;-52
2021/03/16 11:43:26;;;;;;;7.97;1.20;;;5.10;99.90;;;;;;5044242;28;20518;-54
2021/03/16 11:45:51;;;;;;;;;;;4.90;99.90;;;;;;5047240;28;20088;-52
2021/03/16 11:48:17;;;;;;;18.50;9.55;;;4.90;99.90;;;;;;5059439;28;19917;-51
2021/03/16 11:50:42;;;;;;;6.95;1.90;;;5.00;99.90;;;;;;5049319;28;20130;-51
2021/03/16 11:53:08;;;;;;;8.02;1.83;;;4.80;99.90;;;;;;5057911;28;20044;-55
2021/03/16 11:55:34;;;;;;;8.60;1.73;;;4.50;99.90;;;;;;5043851;28;20044;-50
2021/03/16 11:58:00;;;;;;;8.13;2.28;;;4.30;99.90;;;;;;5043991;28;20057;-51
2021/03/16 12:00:27;;;;;;;3.65;1.33;;;4.00;99.90;;;;;;5043318;28;20083;-54
2021/03/16 12:02:53;;;;;;;4.90;1.77;;;3.90;99.90;;;;;;5058854;28;20044;-51
2021/03/16 12:05:19;;;;;;;6.75;1.33;;;4.00;99.90;;;;;;5051399;28;20048;-56
2021/03/16 12:07:45;;;;;;;13.63;2.10;;;3.90;99.90;;;;;;5043347;28;20032;-54
2021/03/16 12:10:11;;;;;;;;;;;4.00;99.90;;;;;;5044673;28;20037;-54
2021/03/16 12:12:37;;;;;;;5.20;1.00;;;4.20;99.90;;;;;;5048122;28;20435;-52
2021/03/16 12:15:11;;;;;;;11.85;1.98;;;4.20;99.90;;;;;;5046920;28;20069;-54
2021/03/16 12:17:37;;;;;;;6.60;1.48;;;4.40;99.90;;;;;;5048098;28;20045;-55
2021/03/16 12:20:04;;;;;;;6.40;1.55;;;4.70;99.90;;;;;;5043861;28;20089;-53
2021/03/16 12:22:30;;;;;;;6.72;1.20;;;4.80;99.90;;;;;;5054574;28;20047;-55
2021/03/16 12:24:56;;;;;;;;;;;4.90;99.90;;;;;;5048416;28;20041;-54
2021/03/16 12:27:21;;;;;;;8.18;1.77;;;4.90;99.90;;;;;;5048475;28;21358;-58
2021/03/16 12:29:47;;;;;;;;;;;4.80;99.90;;;;;;5047807;28;20591;-50
2021/03/16 12:32:12;;;;;;;4.60;1.55;;;4.80;99.90;;;;;;5046181;28;19978;-51
2021/03/16 12:34:39;;;;;;;7.07;1.58;;;4.70;99.90;;;;;;5045506;28;20049;-53
2021/03/16 12:37:06;;;;;;;4.97;1.42;;;4.80;99.90;;;;;;5047408;28;20079;-55
2021/03/16 12:39:31;;;;;;;4.25;1.92;;;4.50;99.90;;;;;;5046955;28;20037;-54
2021/03/16 12:41:57;;;;;;;;;;;4.50;99.90;;;;;;5047423;28;20036;-51
2021/03/16 12:44:23;;;;;;;9.48;1.85;;;4.40;99.90;;;;;;5046936;28;19946;-52
2021/03/16 12:46:49;;;;;;;9.93;2.40;;;4.40;99.90;;;;;;5050286;28;20035;-56
2021/03/16 12:49:14;;;;;;;13.13;2.35;;;4.30;99.90;;;;;;5046702;28;20416;-51
2021/03/16 12:51:40;;;;;;;7.82;1.80;;;4.30;99.90;;;;;;5047256;28;20079;-51
2021/03/16 12:54:06;;;;;;;;;;;4.60;99.90;;;;;;5047472;28;20047;-56
2021/03/16 12:56:31;;;;;;;4.88;1.70;;;4.70;99.90;;;;;;5042203;28;20016;-52
2021/03/16 12:58:57;;;;;;;;;;;4.70;99.90;;;;;;5047840;28;20040;-54